Greenisland, United Kingdom
Current Conditions -  °F | °C
As of 12:20 PM on Thursday 29 Jan 2015 (Local Time) from EGAC Reporting Station
Snow Showers Snow Showers  
Wind Chill: -3°   Ceiling: 1700
Heat Index:   Visibility: 3mi
Dew Point:   Wind: 16mph
Humidity: 87%   Direction: 260°W
Pressure: 28.88"   Gusts: NA
Location:  54.7°N, 5.87°W
Report Text: EGAC 291220Z 26014KT 5000 -SHSN FEW009 BKN017 02/M00 Q0978
Loading
Personal Weather Stations






























Interactive Weather Map New forecast layout! Learn more

10-Day Weather Forecast

Advertisements
Track Severe Weather on mobile